Time;durP1;ratioP1;P1;durP2;ratioP2;P2;SDS_P1;SDS_P2;PMS_P1;PMS_P2;Temp;Humidity;BMP_temperature;BMP_pressure;BME280_temperature;BME280_humidity;BME280_pressure;Samples;Min_cycle;Max_cycle;Signal;HPM_P1;HPM_P2
2022/03/24 00:01:29;;;;;;;56.03;32.07;;;;;;;;;;5100221;28;20577;-63
2022/03/24 00:03:55;;;;;;;58.00;29.83;;;;;;;;;;5100980;28;20079;-63
2022/03/24 00:06:21;;;;;;;56.07;31.33;;;;;;;;;;5098967;28;20040;-63
2022/03/24 00:08:47;;;;;;;61.57;33.10;;;;;;;;;;5097696;28;20044;-63
2022/03/24 00:11:13;;;;;;;61.93;32.33;;;;;;;;;;5099483;28;20035;-63
2022/03/24 00:13:39;;;;;;;58.53;31.63;;;;;;;;;;5080753;28;20126;-63
2022/03/24 00:16:05;;;;;;;66.60;32.07;;;;;;;;;;5088895;28;20498;-63
2022/03/24 00:18:32;;;;;;;54.47;29.33;;;;;;;;;;5097479;28;20134;-63
2022/03/24 00:21:01;;;;;;;55.47;30.63;;;;;;;;;;5095137;28;20036;-63
2022/03/24 00:23:27;;;;;;;49.43;26.83;;;;;;;;;;5089075;28;20040;-63
2022/03/24 00:25:53;;;;;;;53.70;27.43;;;;;;;;;;5094232;28;20047;-63
2022/03/24 00:28:19;;;;;;;66.97;33.10;;;;;;;;;;5110552;28;20051;-63
2022/03/24 00:30:46;;;;;;;59.87;32.87;;;;;;;;;;5110056;28;20335;-63
2022/03/24 00:33:12;;;;;;;58.73;31.70;;;;;;;;;;5100833;28;20060;-63
2022/03/24 00:35:38;;;;;;;60.60;31.37;;;;;;;;;;5095736;28;20510;-63
2022/03/24 00:38:07;;;;;;;60.77;31.27;;;;;;;;;;5089794;28;20313;-63
2022/03/24 00:40:34;;;;;;;58.83;29.47;;;;;;;;;;5108893;28;20036;-63
2022/03/24 00:43:01;;;;;;;59.97;32.70;;;;;;;;;;5089839;28;20051;-63
2022/03/24 00:45:27;;;;;;;66.40;32.20;;;;;;;;;;5089697;28;20293;-63
2022/03/24 00:47:54;;;;;;;63.97;33.90;;;;;;;;;;5090243;28;20796;-63
2022/03/24 00:50:20;;;;;;;64.50;32.93;;;;;;;;;;5090041;28;20357;-63
2022/03/24 00:52:46;;;;;;;67.87;32.37;;;;;;;;;;5089607;28;20048;-63
2022/03/24 00:55:13;;;;;;;69.40;33.37;;;;;;;;;;5100882;28;20046;-63
2022/03/24 00:57:40;;;;;;;61.93;32.67;;;;;;;;;;5095886;28;20110;-63
2022/03/24 01:00:06;;;;;;;65.67;33.07;;;;;;;;;;5089972;28;20044;-63
2022/03/24 01:02:37;;;;;;;62.97;32.17;;;;;;;;;;5089825;28;21309;-64
2022/03/24 01:05:04;;;;;;;61.90;30.80;;;;;;;;;;5089988;28;20047;-63
2022/03/24 01:07:30;;;;;;;59.40;31.40;;;;;;;;;;5089812;28;20352;-63
2022/03/24 01:09:56;;;;;;;66.23;34.10;;;;;;;;;;5091875;28;20040;-63
2022/03/24 01:12:22;;;;;;;75.87;35.40;;;;;;;;;;5091771;28;20304;-63
2022/03/24 01:14:48;;;;;;;76.97;33.93;;;;;;;;;;5109806;28;20289;-63
2022/03/24 01:17:16;;;;;;;70.47;35.87;;;;;;;;;;5109656;28;20309;-63
2022/03/24 01:19:42;;;;;;;79.07;36.63;;;;;;;;;;5105458;28;20297;-63
2022/03/24 01:22:08;;;;;;;71.63;35.77;;;;;;;;;;5089097;28;20795;-63
2022/03/24 01:24:38;;;;;;;74.33;33.93;;;;;;;;;;5093477;28;20306;-63
2022/03/24 01:27:05;;;;;;;70.37;35.40;;;;;;;;;;5109461;28;20370;-63
2022/03/24 01:29:31;;;;;;;97.70;38.23;;;;;;;;;;5109864;28;20407;-63
2022/03/24 01:31:57;;;;;;;77.20;36.47;;;;;;;;;;5109077;28;20289;-63
2022/03/24 01:34:25;;;;;;;75.50;37.80;;;;;;;;;;5100535;28;20290;-63
2022/03/24 01:36:51;;;;;;;81.47;38.50;;;;;;;;;;5089277;28;20302;-63
2022/03/24 01:39:17;;;;;;;74.47;38.33;;;;;;;;;;5088233;28;20783;-63
2022/03/24 01:41:46;;;;;;;86.43;40.77;;;;;;;;;;5089307;28;20321;-63
2022/03/24 01:44:13;;;;;;;81.90;39.20;;;;;;;;;;5088919;28;20298;-63
2022/03/24 01:46:53;;;;;;;77.77;35.90;;;;;;;;;;5070590;28;20298;-63
2022/03/24 01:49:20;;;;;;;85.87;38.70;;;;;;;;;;5088720;28;20652;-63
2022/03/24 01:51:46;;;;;;;82.53;39.53;;;;;;;;;;5109147;28;20649;-63
2022/03/24 01:54:12;;;;;;;82.30;39.37;;;;;;;;;;5090387;28;20297;-63
2022/03/24 01:56:40;;;;;;;81.00;37.33;;;;;;;;;;5088633;28;20127;-63
2022/03/24 01:59:07;;;;;;;92.83;41.80;;;;;;;;;;5070685;28;20293;-63
2022/03/24 02:01:35;;;;;;;91.40;40.90;;;;;;;;;;5088836;28;20652;-63
2022/03/24 02:04:05;;;;;;;84.60;39.70;;;;;;;;;;5088610;28;20286;-63
2022/03/24 02:06:34;;;;;;;77.37;37.53;;;;;;;;;;5102636;28;20331;-63
2022/03/24 02:09:00;;;;;;;92.57;39.17;;;;;;;;;;5088754;28;20290;-63
2022/03/24 02:11:30;;;;;;;86.37;39.93;;;;;;;;;;5088896;28;20326;-63
2022/03/24 02:13:57;;;;;;;87.90;40.90;;;;;;;;;;5088629;28;20993;-63
2022/03/24 02:16:27;;;;;;;86.10;38.50;;;;;;;;;;5088777;28;20446;-62
2022/03/24 02:18:59;;;;;;;79.80;38.77;;;;;;;;;;5091868;28;20297;-63
2022/03/24 02:21:26;;;;;;;80.70;39.70;;;;;;;;;;5089892;28;20322;-63
2022/03/24 02:23:52;;;;;;;93.53;41.07;;;;;;;;;;5088974;28;20282;-63
2022/03/24 02:26:18;;;;;;;87.90;43.00;;;;;;;;;;5089767;28;20332;-63
2022/03/24 02:28:47;;;;;;;98.67;42.03;;;;;;;;;;5088478;28;20089;-63
2022/03/24 02:31:13;;;;;;;100.13;42.83;;;;;;;;;;5091610;28;20043;-63
2022/03/24 02:33:40;;;;;;;97.50;39.20;;;;;;;;;;5108335;28;20319;-63
2022/03/24 02:36:07;;;;;;;95.90;36.20;;;;;;;;;;5101012;28;20372;-63
2022/03/24 02:38:33;;;;;;;70.50;35.07;;;;;;;;;;5070391;28;20361;-63
2022/03/24 02:40:59;;;;;;;77.53;35.17;;;;;;;;;;5088554;28;20338;-63
2022/03/24 02:43:25;;;;;;;99.33;39.93;;;;;;;;;;5088536;28;20335;-64
2022/03/24 02:45:53;;;;;;;95.13;40.50;;;;;;;;;;5088508;28;20282;-63
2022/03/24 02:48:20;;;;;;;92.67;39.83;;;;;;;;;;5088486;28;20320;-63
2022/03/24 02:50:46;;;;;;;89.47;39.33;;;;;;;;;;5090296;28;20687;-63
2022/03/24 02:53:12;;;;;;;90.67;36.73;;;;;;;;;;5094832;28;20307;-63
2022/03/24 02:55:38;;;;;;;94.77;40.37;;;;;;;;;;5091679;28;20067;-63
2022/03/24 02:58:04;;;;;;;103.97;40.20;;;;;;;;;;5092134;28;20044;-63
2022/03/24 03:00:30;;;;;;;102.07;42.00;;;;;;;;;;5092046;28;20051;-63
2022/03/24 03:02:56;;;;;;;95.43;37.33;;;;;;;;;;5107740;28;20319;-63
2022/03/24 03:05:22;;;;;;;87.13;40.13;;;;;;;;;;5112267;28;20409;-63
2022/03/24 03:07:48;;;;;;;86.37;38.53;;;;;;;;;;5094034;28;20040;-63
2022/03/24 03:10:14;;;;;;;101.23;43.10;;;;;;;;;;5091817;28;20715;-63
2022/03/24 03:12:44;;;;;;;108.77;41.07;;;;;;;;;;5091303;28;20282;-63
2022/03/24 03:15:10;;;;;;;106.07;42.67;;;;;;;;;;5095760;28;20286;-63
2022/03/24 03:17:37;;;;;;;102.10;43.63;;;;;;;;;;5112025;28;20301;-63
2022/03/24 03:20:06;;;;;;;106.47;43.50;;;;;;;;;;5103663;28;20803;-63
2022/03/24 03:22:32;;;;;;;115.77;45.67;;;;;;;;;;5091681;28;20286;-63
2022/03/24 03:24:59;;;;;;;112.70;45.17;;;;;;;;;;5091467;28;20694;-63
2022/03/24 03:27:27;;;;;;;98.77;42.93;;;;;;;;;;5091357;28;20282;-63
2022/03/24 03:29:53;;;;;;;108.70;45.77;;;;;;;;;;5094968;28;20292;-63
2022/03/24 03:32:21;;;;;;;105.13;47.47;;;;;;;;;;5099604;28;20357;-63
2022/03/24 03:34:48;;;;;;;118.67;46.73;;;;;;;;;;5102600;28;20336;-63
2022/03/24 03:37:14;;;;;;;128.77;46.37;;;;;;;;;;5078093;28;20359;-63
2022/03/24 03:39:41;;;;;;;120.77;46.20;;;;;;;;;;5090824;28;20846;-63
2022/03/24 03:42:08;;;;;;;113.10;43.97;;;;;;;;;;5091457;28;20370;-63
2022/03/24 03:44:34;;;;;;;108.47;44.50;;;;;;;;;;5090945;28;20290;-63
2022/03/24 03:47:01;;;;;;;109.87;43.50;;;;;;;;;;5091076;28;20289;-63
2022/03/24 03:49:27;;;;;;;91.33;38.77;;;;;;;;;;5090441;28;20286;-63
2022/03/24 03:51:54;;;;;;;107.53;41.07;;;;;;;;;;5091093;28;20279;-63
2022/03/24 03:54:21;;;;;;;96.83;42.03;;;;;;;;;;5090985;28;20293;-63
2022/03/24 03:56:47;;;;;;;95.77;41.93;;;;;;;;;;5091223;28;20309;-63
2022/03/24 03:59:13;;;;;;;113.03;45.70;;;;;;;;;;5090671;28;20295;-63
2022/03/24 04:01:39;;;;;;;112.53;44.23;;;;;;;;;;5101076;28;20868;-63
2022/03/24 04:04:12;;;;;;;114.13;45.13;;;;;;;;;;5110855;28;20652;-63
2022/03/24 04:06:38;;;;;;;101.00;41.60;;;;;;;;;;5111052;28;20291;-63
2022/03/24 04:09:04;;;;;;;107.97;44.07;;;;;;;;;;5111536;28;20397;-63
2022/03/24 04:11:30;;;;;;;113.93;44.53;;;;;;;;;;5110937;28;20285;-63
2022/03/24 04:13:56;;;;;;;116.57;43.50;;;;;;;;;;5110932;28;20315;-63
2022/03/24 04:16:22;;;;;;;118.37;44.53;;;;;;;;;;5102629;28;20712;-63
2022/03/24 04:18:49;;;;;;;117.10;42.33;;;;;;;;;;5101275;28;20305;-63
2022/03/24 04:21:16;;;;;;;105.60;40.03;;;;;;;;;;5096142;28;20294;-63
2022/03/24 04:23:43;;;;;;;112.63;40.87;;;;;;;;;;5090457;28;20372;-63
2022/03/24 04:26:12;;;;;;;105.23;40.67;;;;;;;;;;5095202;28;20294;-63
2022/03/24 04:28:38;;;;;;;112.27;41.37;;;;;;;;;;5090243;28;20640;-63
2022/03/24 04:31:04;;;;;;;99.43;41.30;;;;;;;;;;5093316;28;20805;-63
2022/03/24 04:33:30;;;;;;;97.03;40.63;;;;;;;;;;5110321;28;20884;-63
2022/03/24 04:35:58;;;;;;;114.30;40.57;;;;;;;;;;5110467;28;20339;-63
2022/03/24 04:38:24;;;;;;;100.07;42.50;;;;;;;;;;5110332;28;20344;-63
2022/03/24 04:40:50;;;;;;;113.13;44.63;;;;;;;;;;5110556;28;20296;-63
2022/03/24 04:43:16;;;;;;;115.13;44.33;;;;;;;;;;5110208;28;20304;-63
2022/03/24 04:45:43;;;;;;;121.60;45.20;;;;;;;;;;5107657;28;20309;-63
2022/03/24 04:48:09;;;;;;;112.50;44.40;;;;;;;;;;5096984;28;20376;-63
2022/03/24 04:50:35;;;;;;;102.83;44.07;;;;;;;;;;5100925;28;20286;-63
2022/03/24 04:53:01;;;;;;;118.73;46.63;;;;;;;;;;5094240;28;20293;-63
2022/03/24 04:55:27;;;;;;;120.97;46.90;;;;;;;;;;5109483;28;20700;-63
2022/03/24 04:57:53;;;;;;;119.37;47.43;;;;;;;;;;5109868;28;20517;-63
2022/03/24 05:00:19;;;;;;;129.03;49.27;;;;;;;;;;5108872;28;20320;-63
2022/03/24 05:02:49;;;;;;;125.63;46.17;;;;;;;;;;5090633;28;20044;-63
2022/03/24 05:05:15;;;;;;;125.33;45.37;;;;;;;;;;5089938;28;20055;-63
2022/03/24 05:07:42;;;;;;;137.93;48.93;;;;;;;;;;5089211;28;20285;-63
2022/03/24 05:10:08;;;;;;;119.63;46.23;;;;;;;;;;5089686;28;20297;-63
2022/03/24 05:12:34;;;;;;;121.53;44.97;;;;;;;;;;5089229;28;20336;-63
2022/03/24 05:15:00;;;;;;;127.47;47.43;;;;;;;;;;5088960;28;20282;-63
2022/03/24 05:17:26;;;;;;;132.10;46.53;;;;;;;;;;5089423;28;20130;-63
2022/03/24 05:19:52;;;;;;;116.30;43.30;;;;;;;;;;5088810;28;20657;-63
2022/03/24 05:22:19;;;;;;;104.70;41.77;;;;;;;;;;5089708;28;20274;-63
2022/03/24 05:24:45;;;;;;;104.90;42.97;;;;;;;;;;5089445;28;20695;-64
2022/03/24 05:27:11;;;;;;;106.73;44.20;;;;;;;;;;5091126;28;20381;-63
2022/03/24 05:29:38;;;;;;;145.73;51.80;;;;;;;;;;5089480;28;20385;-63
2022/03/24 05:32:04;;;;;;;131.40;49.20;;;;;;;;;;5109989;28;20346;-63
2022/03/24 05:34:31;;;;;;;126.73;48.70;;;;;;;;;;5109229;28;20289;-63
2022/03/24 05:36:57;;;;;;;131.00;49.47;;;;;;;;;;5108773;28;20314;-65
2022/03/24 05:39:23;;;;;;;149.80;55.53;;;;;;;;;;5091117;28;20299;-63
2022/03/24 05:41:49;;;;;;;128.60;48.27;;;;;;;;;;5109038;28;20297;-63
2022/03/24 05:44:15;;;;;;;142.10;51.00;;;;;;;;;;5109158;28;20365;-62
2022/03/24 05:46:44;;;;;;;135.40;48.93;;;;;;;;;;5089116;28;21081;-63
2022/03/24 05:49:14;;;;;;;131.43;49.43;;;;;;;;;;5092538;28;20069;-63
2022/03/24 05:51:42;;;;;;;127.80;49.43;;;;;;;;;;5108966;28;20284;-62
2022/03/24 05:54:09;;;;;;;126.07;46.60;;;;;;;;;;5109005;28;20309;-62
2022/03/24 05:56:35;;;;;;;129.83;48.73;;;;;;;;;;5104727;28;20720;-62
2022/03/24 05:59:01;;;;;;;130.90;45.10;;;;;;;;;;5104550;28;20292;-63
2022/03/24 06:01:27;;;;;;;127.70;40.27;;;;;;;;;;5093805;28;20285;-63
2022/03/24 06:03:53;;;;;;;121.90;42.23;;;;;;;;;;5101792;28;20040;-62
2022/03/24 06:06:22;;;;;;;108.67;42.83;;;;;;;;;;5093897;28;20286;-63
2022/03/24 06:08:51;;;;;;;112.83;44.43;;;;;;;;;;5091799;28;20294;-63
2022/03/24 06:11:17;;;;;;;112.77;43.40;;;;;;;;;;5071826;28;20796;-63
2022/03/24 06:13:43;;;;;;;118.00;45.47;;;;;;;;;;5108828;28;20360;-63
2022/03/24 06:16:10;;;;;;;137.10;47.17;;;;;;;;;;5108767;28;20281;-63
2022/03/24 06:18:36;;;;;;;129.30;48.17;;;;;;;;;;5100754;28;20343;-63
2022/03/24 06:21:04;;;;;;;128.07;49.73;;;;;;;;;;5098061;28;20301;-63
2022/03/24 06:23:30;;;;;;;136.50;49.53;;;;;;;;;;5101073;28;20660;-63
2022/03/24 06:25:57;;;;;;;128.67;48.60;;;;;;;;;;5111269;28;20419;-63
2022/03/24 06:28:23;;;;;;;118.43;46.83;;;;;;;;;;5093879;28;20293;-63
2022/03/24 06:30:49;;;;;;;122.63;47.67;;;;;;;;;;5104173;28;20308;-63
2022/03/24 06:33:16;;;;;;;130.60;50.73;;;;;;;;;;5092155;28;20278;-63
2022/03/24 06:35:43;;;;;;;113.83;45.47;;;;;;;;;;5092193;28;20305;-63
2022/03/24 06:38:09;;;;;;;117.70;45.80;;;;;;;;;;5074105;28;20392;-64
2022/03/24 06:40:35;;;;;;;126.30;46.70;;;;;;;;;;5092233;28;20282;-64
2022/03/24 06:43:01;;;;;;;113.57;45.67;;;;;;;;;;5091265;28;20300;-63
2022/03/24 06:45:28;;;;;;;113.80;44.33;;;;;;;;;;5091726;28;20377;-64
2022/03/24 06:47:54;;;;;;;108.40;46.80;;;;;;;;;;5092171;28;20048;-64
2022/03/24 06:50:21;;;;;;;140.03;54.03;;;;;;;;;;5092900;28;20286;-64
2022/03/24 06:52:47;;;;;;;130.57;53.60;;;;;;;;;;5091788;28;20609;-64
2022/03/24 06:55:13;;;;;;;147.33;56.07;;;;;;;;;;5091652;28;20285;-64
2022/03/24 06:57:39;;;;;;;138.60;56.33;;;;;;;;;;5085151;28;20585;-64
2022/03/24 07:00:06;;;;;;;135.07;52.67;;;;;;;;;;5091642;28;20286;-64
2022/03/24 07:02:32;;;;;;;131.43;53.97;;;;;;;;;;5074076;28;20290;-64
2022/03/24 07:04:58;;;;;;;134.63;54.63;;;;;;;;;;5107310;28;20414;-64
2022/03/24 07:07:27;;;;;;;133.03;54.90;;;;;;;;;;5110764;28;20055;-64
2022/03/24 07:09:53;;;;;;;121.73;51.53;;;;;;;;;;5091469;28;20101;-64
2022/03/24 07:12:22;;;;;;;125.57;53.10;;;;;;;;;;5091641;28;20044;-64
2022/03/24 07:14:48;;;;;;;130.03;55.80;;;;;;;;;;5090190;28;20287;-64
2022/03/24 07:17:15;;;;;;;131.30;60.60;;;;;;;;;;5090718;28;20391;-64
2022/03/24 07:19:41;;;;;;;128.03;57.80;;;;;;;;;;5091651;28;20304;-64
2022/03/24 07:22:08;;;;;;;130.47;63.47;;;;;;;;;;5099386;28;20563;-64
2022/03/24 07:24:34;;;;;;;135.70;60.67;;;;;;;;;;5091577;28;20052;-64
2022/03/24 07:27:00;;;;;;;116.03;58.13;;;;;;;;;;5094778;28;20294;-64
2022/03/24 07:29:26;;;;;;;128.60;60.70;;;;;;;;;;5097233;28;20297;-64
2022/03/24 07:31:53;;;;;;;141.83;63.30;;;;;;;;;;5097468;28;20047;-64
2022/03/24 07:34:19;;;;;;;125.30;60.33;;;;;;;;;;5099814;28;20886;-64
2022/03/24 07:36:45;;;;;;;132.70;62.00;;;;;;;;;;5102213;28;20086;-64
2022/03/24 07:39:11;;;;;;;124.97;60.93;;;;;;;;;;5089770;28;20044;-64
2022/03/24 07:41:38;;;;;;;131.50;59.83;;;;;;;;;;5091050;28;20118;-64
2022/03/24 07:44:04;;;;;;;119.13;60.37;;;;;;;;;;5106796;28;20044;-64
2022/03/24 07:46:30;;;;;;;113.50;57.57;;;;;;;;;;5100075;28;20128;-64
2022/03/24 07:48:56;;;;;;;106.37;56.10;;;;;;;;;;5096763;28;20052;-64
2022/03/24 07:51:23;;;;;;;110.17;56.60;;;;;;;;;;5091116;28;20078;-64
2022/03/24 07:53:49;;;;;;;110.77;57.00;;;;;;;;;;5089370;28;20043;-65
2022/03/24 07:56:19;;;;;;;132.90;61.27;;;;;;;;;;5091372;28;20109;-65
2022/03/24 07:58:45;;;;;;;108.77;57.50;;;;;;;;;;5090027;28;20078;-64
2022/03/24 08:01:11;;;;;;;94.57;54.97;;;;;;;;;;5090063;28;20051;-64
2022/03/24 08:03:37;;;;;;;99.77;57.30;;;;;;;;;;5104818;28;20118;-65
2022/03/24 08:06:04;;;;;;;99.57;55.50;;;;;;;;;;5090803;28;20043;-65
2022/03/24 08:08:30;;;;;;;103.73;55.10;;;;;;;;;;5107534;28;20042;-65
2022/03/24 08:10:57;;;;;;;98.03;57.03;;;;;;;;;;5110153;28;20105;-65
2022/03/24 08:13:24;;;;;;;94.57;56.10;;;;;;;;;;5106544;28;20582;-65
2022/03/24 08:15:50;;;;;;;81.47;49.07;;;;;;;;;;5101842;28;20409;-65
2022/03/24 08:18:17;;;;;;;86.90;49.00;;;;;;;;;;5108024;28;20040;-65
2022/03/24 08:20:44;;;;;;;83.53;49.70;;;;;;;;;;5108588;28;20055;-65
2022/03/24 08:23:10;;;;;;;83.13;49.10;;;;;;;;;;5100708;28;20130;-65
2022/03/24 08:25:40;;;;;;;77.27;48.70;;;;;;;;;;5085444;28;20448;-65
2022/03/24 08:28:07;;;;;;;80.43;46.83;;;;;;;;;;5089148;28;20180;-65
2022/03/24 08:30:33;;;;;;;78.70;46.67;;;;;;;;;;5093361;28;20054;-65
2022/03/24 08:32:59;;;;;;;66.07;41.40;;;;;;;;;;5090715;28;20054;-65
2022/03/24 08:35:25;;;;;;;60.90;37.37;;;;;;;;;;5106630;28;20061;-65
2022/03/24 08:37:51;;;;;;;63.00;39.53;;;;;;;;;;5108111;28;20048;-65
2022/03/24 08:40:18;;;;;;;63.00;37.97;;;;;;;;;;5107572;28;20507;-65
2022/03/24 08:42:44;;;;;;;64.00;37.57;;;;;;;;;;5089925;28;20135;-65
2022/03/24 08:45:11;;;;;;;60.37;38.90;;;;;;;;;;5110052;28;20063;-65
2022/03/24 08:47:38;;;;;;;64.33;37.57;;;;;;;;;;5095495;28;20170;-65
2022/03/24 08:50:05;;;;;;;60.97;39.10;;;;;;;;;;5099203;28;20043;-65
2022/03/24 08:52:31;;;;;;;56.77;35.07;;;;;;;;;;5105790;28;20097;-65
2022/03/24 08:54:57;;;;;;;53.50;35.00;;;;;;;;;;5089228;28;20052;-65
2022/03/24 08:57:27;;;;;;;54.03;34.23;;;;;;;;;;5084570;28;20390;-65
2022/03/24 08:59:57;;;;;;;48.53;31.13;;;;;;;;;;5088960;28;20548;-65
2022/03/24 09:02:23;;;;;;;50.00;30.97;;;;;;;;;;5089425;28;20532;-65
2022/03/24 09:04:50;;;;;;;50.77;30.80;;;;;;;;;;5089469;28;20356;-65
2022/03/24 09:07:16;;;;;;;49.03;31.60;;;;;;;;;;5099100;28;20047;-65
2022/03/24 09:09:43;;;;;;;43.57;28.33;;;;;;;;;;5101682;28;20054;-64
2022/03/24 09:12:09;;;;;;;45.57;30.23;;;;;;;;;;5090726;28;20047;-65
2022/03/24 09:14:36;;;;;;;43.40;28.63;;;;;;;;;;5090389;28;20044;-65
2022/03/24 09:17:02;;;;;;;43.77;28.90;;;;;;;;;;5099758;28;20539;-66
2022/03/24 09:19:29;;;;;;;42.43;27.23;;;;;;;;;;5087982;28;20048;-66
2022/03/24 09:21:55;;;;;;;42.60;27.87;;;;;;;;;;5093253;28;20579;-66
2022/03/24 09:24:21;;;;;;;39.93;27.10;;;;;;;;;;5089511;28;20155;-66
2022/03/24 09:26:47;;;;;;;40.83;26.73;;;;;;;;;;5089163;28;20573;-66
2022/03/24 09:29:13;;;;;;;44.17;28.40;;;;;;;;;;5087903;28;20047;-65
2022/03/24 09:31:39;;;;;;;40.53;26.20;;;;;;;;;;5100144;28;20043;-66
2022/03/24 09:34:05;;;;;;;40.23;25.77;;;;;;;;;;5102183;28;20058;-66
2022/03/24 09:36:31;;;;;;;43.80;28.07;;;;;;;;;;5085067;28;20101;-66
2022/03/24 09:38:58;;;;;;;41.07;28.07;;;;;;;;;;5091392;28;20052;-66
2022/03/24 09:41:27;;;;;;;39.57;26.27;;;;;;;;;;5089265;28;20071;-66
2022/03/24 09:43:53;;;;;;;37.50;24.77;;;;;;;;;;5088016;28;20051;-66
2022/03/24 09:46:20;;;;;;;44.00;27.57;;;;;;;;;;5092165;28;20055;-65
2022/03/24 09:48:46;;;;;;;46.77;27.40;;;;;;;;;;5088909;28;20421;-66
2022/03/24 09:51:14;;;;;;;45.77;26.90;;;;;;;;;;5089043;28;20040;-66
2022/03/24 09:53:41;;;;;;;42.67;26.93;;;;;;;;;;5103341;28;20039;-66
2022/03/24 09:56:08;;;;;;;35.63;25.97;;;;;;;;;;5093843;28;20047;-63
2022/03/24 09:58:34;;;;;;;35.97;25.93;;;;;;;;;;5089091;28;20044;-65
2022/03/24 10:01:01;;;;;;;38.47;26.57;;;;;;;;;;5078885;28;20118;-65
2022/03/24 10:03:27;;;;;;;41.50;25.17;;;;;;;;;;5107437;28;20038;-65
2022/03/24 10:06:02;;;;;;;39.07;26.67;;;;;;;;;;5096465;28;20051;-65
2022/03/24 10:08:29;;;;;;;39.27;25.00;;;;;;;;;;5107772;28;20157;-64
2022/03/24 10:10:59;;;;;;;35.60;23.13;;;;;;;;;;5094246;28;20036;-65
2022/03/24 10:14:01;;;;;;;37.50;25.33;;;;;;;;;;5108652;28;20051;-64
2022/03/24 10:16:39;;;;;;;32.07;23.53;;;;;;;;;;5005423;28;20152;-65
2022/03/24 10:19:16;;;;;;;37.47;23.30;;;;;;;;;;5096393;28;20060;-65
2022/03/24 10:21:44;;;;;;;35.50;23.73;;;;;;;;;;5090085;28;20048;-65
2022/03/24 10:24:13;;;;;;;37.73;23.83;;;;;;;;;;5088476;28;20537;-65
2022/03/24 10:26:42;;;;;;;31.33;23.20;;;;;;;;;;5088495;28;20080;-65
2022/03/24 10:29:09;;;;;;;31.27;21.70;;;;;;;;;;5088381;28;20089;-65
2022/03/24 10:31:36;;;;;;;34.97;23.40;;;;;;;;;;5088373;28;20059;-65
2022/03/24 10:34:03;;;;;;;34.67;24.43;;;;;;;;;;5087693;28;20052;-65
2022/03/24 10:36:30;;;;;;;30.43;21.50;;;;;;;;;;5105718;28;20083;-65
2022/03/24 10:39:00;;;;;;;31.37;21.07;;;;;;;;;;5108297;28;20043;-65
2022/03/24 10:41:30;;;;;;;30.07;21.60;;;;;;;;;;5108220;28;20052;-65
2022/03/24 10:43:57;;;;;;;33.27;21.57;;;;;;;;;;5108575;28;20047;-65
2022/03/24 10:46:23;;;;;;;29.77;22.00;;;;;;;;;;5108733;28;20087;-65
2022/03/24 10:48:50;;;;;;;35.60;22.33;;;;;;;;;;5108502;28;20078;-65
2022/03/24 10:51:22;;;;;;;29.73;22.20;;;;;;;;;;5091570;28;20387;-65
2022/03/24 10:53:49;;;;;;;36.80;22.83;;;;;;;;;;5108557;28;20067;-66
2022/03/24 10:56:19;;;;;;;29.53;23.00;;;;;;;;;;5108422;28;20040;-65
2022/03/24 10:58:48;;;;;;;34.07;21.93;;;;;;;;;;5108200;28;20075;-65
2022/03/24 11:01:16;;;;;;;28.73;21.87;;;;;;;;;;5108348;28;20044;-65
2022/03/24 11:03:44;;;;;;;31.20;22.90;;;;;;;;;;5108006;28;20057;-66
2022/03/24 11:06:20;;;;;;;31.03;20.93;;;;;;;;;;5089502;28;20078;-66
2022/03/24 11:08:53;;;;;;;27.67;19.20;;;;;;;;;;5088050;28;20055;-65
2022/03/24 11:11:19;;;;;;;;;;;;;;;;;;5088520;28;20176;-65
2022/03/24 11:13:55;;;;;;;25.93;17.67;;;;;;;;;;5102337;28;19920;-65
2022/03/24 11:16:22;;;;;;;28.70;19.53;;;;;;;;;;5111841;28;20046;-65
2022/03/24 11:18:49;;;;;;;26.65;18.90;;;;;;;;;;5111377;28;20846;-66
2022/03/24 11:21:34;;;;;;;26.97;17.83;;;;;;;;;;5093352;28;20452;-66
2022/03/24 11:24:00;;;;;;;19.50;14.27;;;;;;;;;;5111623;28;20063;-66
2022/03/24 11:26:28;;;;;;;25.52;15.25;;;;;;;;;;5111957;28;20035;-66
2022/03/24 11:28:55;;;;;;;27.17;15.85;;;;;;;;;;5095614;28;20083;-66
2022/03/24 11:31:23;;;;;;;22.42;16.45;;;;;;;;;;5091375;28;20071;-65
2022/03/24 11:33:50;;;;;;;24.20;14.95;;;;;;;;;;5090815;28;20052;-66
2022/03/24 11:36:17;;;;;;;21.52;13.35;;;;;;;;;;5090798;28;20406;-66
2022/03/24 11:38:46;;;;;;;22.13;14.18;;;;;;;;;;5091203;28;20048;-66
2022/03/24 11:41:16;;;;;;;22.60;12.75;;;;;;;;;;5091276;28;20040;-66
2022/03/24 11:43:44;;;;;;;21.23;13.43;;;;;;;;;;5091111;28;20043;-66
2022/03/24 11:46:11;;;;;;;24.33;16.70;;;;;;;;;;5096311;28;20255;-66
2022/03/24 11:48:38;;;;;;;23.35;13.63;;;;;;;;;;5110569;28;20061;-66
2022/03/24 11:51:05;;;;;;;22.40;15.10;;;;;;;;;;5111304;28;20044;-66
2022/03/24 11:53:31;;;;;;;23.55;15.38;;;;;;;;;;5111092;28;20062;-66
2022/03/24 11:56:01;;;;;;;26.50;16.33;;;;;;;;;;5110530;28;20051;-66
2022/03/24 11:58:47;;;;;;;23.13;15.75;;;;;;;;;;5110792;28;20051;-66
2022/03/24 12:01:19;;;;;;;23.95;16.15;;;;;;;;;;5059253;28;20484;-66
2022/03/24 12:03:54;;;;;;;24.90;16.52;;;;;;;;;;5111223;28;20562;-66
2022/03/24 12:06:44;;;;;;;27.75;16.02;;;;;;;;;;5110847;28;20067;-66
2022/03/24 12:09:11;;;;;;;25.83;15.50;;;;;;;;;;5110890;28;20044;-66
2022/03/24 12:11:38;;;;;;;28.70;15.85;;;;;;;;;;5100546;28;20040;-66
2022/03/24 12:14:13;;;;;;;24.52;13.93;;;;;;;;;;5090280;28;20052;-66
2022/03/24 12:16:40;;;;;;;22.70;14.38;;;;;;;;;;5090038;28;20131;-66
2022/03/24 12:19:08;;;;;;;25.13;15.50;;;;;;;;;;5090082;28;20048;-66
2022/03/24 12:21:34;;;;;;;25.83;15.38;;;;;;;;;;5090264;28;20055;-66
2022/03/24 12:24:08;;;;;;;28.33;13.93;;;;;;;;;;5071532;28;20127;-66
2022/03/24 12:26:40;;;;;;;23.02;13.32;;;;;;;;;;5089646;28;20044;-66
2022/03/24 12:29:13;;;;;;;23.15;14.23;;;;;;;;;;5090238;28;20047;-66
2022/03/24 12:32:02;;;;;;;23.50;14.98;;;;;;;;;;5089761;28;20048;-66
2022/03/24 12:34:44;;;;;;;25.63;13.63;;;;;;;;;;5078359;28;20453;-66
2022/03/24 12:37:31;;;;;;;19.48;13.10;;;;;;;;;;5090217;28;20395;-66
2022/03/24 12:40:07;;;;;;;28.30;14.30;;;;;;;;;;5089633;28;20085;-66
2022/03/24 12:42:40;;;;;;;19.98;13.55;;;;;;;;;;5089885;28;20123;-66
2022/03/24 12:45:07;;;;;;;21.17;13.73;;;;;;;;;;5089726;28;20052;-67
2022/03/24 12:47:36;;;;;;;20.33;13.65;;;;;;;;;;5090059;28;20048;-67
2022/03/24 12:50:09;;;;;;;25.73;15.35;;;;;;;;;;5089008;28;20051;-66
2022/03/24 12:52:49;;;;;;;18.20;12.93;;;;;;;;;;5089252;28;20113;-66
2022/03/24 12:55:22;;;;;;;21.38;13.82;;;;;;;;;;5108829;28;20446;-67
2022/03/24 12:57:55;;;;;;;24.30;14.65;;;;;;;;;;5091352;28;20055;-66
2022/03/24 13:00:24;;;;;;;22.58;13.48;;;;;;;;;;5109626;28;20082;-67
2022/03/24 13:02:50;;;;;;;22.60;12.57;;;;;;;;;;5074894;28;20481;-66
2022/03/24 13:05:21;;;;;;;20.00;12.07;;;;;;;;;;5097191;28;20051;-67
2022/03/24 13:07:52;;;;;;;24.77;13.80;;;;;;;;;;5096886;28;20047;-67
2022/03/24 13:10:19;;;;;;;24.80;14.55;;;;;;;;;;5095586;28;20046;-66
2022/03/24 13:12:46;;;;;;;24.55;15.02;;;;;;;;;;5090739;28;20046;-67
2022/03/24 13:15:26;;;;;;;22.98;13.48;;;;;;;;;;5109377;28;20584;-67
2022/03/24 13:17:53;;;;;;;26.33;12.25;;;;;;;;;;5109411;28;20083;-67
2022/03/24 13:20:20;;;;;;;19.02;15.07;;;;;;;;;;5109469;28;20058;-67
2022/03/24 13:22:50;;;;;;;22.77;15.77;;;;;;;;;;5108560;28;20044;-67
2022/03/24 13:25:17;;;;;;;19.92;14.77;;;;;;;;;;5108621;28;20050;-67
2022/03/24 13:27:45;;;;;;;25.33;16.35;;;;;;;;;;5109609;28;20093;-67
2022/03/24 13:30:15;;;;;;;23.30;15.35;;;;;;;;;;5109239;28;20043;-67
2022/03/24 13:32:41;;;;;;;19.45;14.82;;;;;;;;;;5108963;28;20055;-66
2022/03/24 13:35:12;;;;;;;26.08;15.05;;;;;;;;;;5108138;28;20406;-66
2022/03/24 13:37:49;;;;;;;27.02;16.98;;;;;;;;;;5109067;28;20047;-66
2022/03/24 13:40:16;;;;;;;25.73;15.70;;;;;;;;;;5089586;28;20036;-66
2022/03/24 13:42:43;;;;;;;19.75;13.20;;;;;;;;;;5088968;28;20444;-66
2022/03/24 13:45:10;;;;;;;24.70;12.50;;;;;;;;;;5088602;28;20128;-66
2022/03/24 13:47:40;;;;;;;19.27;13.65;;;;;;;;;;5088574;28;20040;-66
2022/03/24 13:50:06;;;;;;;22.42;13.63;;;;;;;;;;5089010;28;20086;-66
2022/03/24 13:52:39;;;;;;;24.13;14.48;;;;;;;;;;5088593;28;20071;-66
2022/03/24 13:55:11;;;;;;;21.90;12.23;;;;;;;;;;5088869;28;20048;-65
2022/03/24 13:57:56;;;;;;;16.08;11.27;;;;;;;;;;5088660;28;20048;-66
2022/03/24 14:00:26;;;;;;;21.77;10.48;;;;;;;;;;5070700;28;20406;-66
2022/03/24 14:02:56;;;;;;;21.83;10.90;;;;;;;;;;5088453;28;20391;-66
2022/03/24 14:05:22;;;;;;;20.58;11.32;;;;;;;;;;5088688;28;20093;-67
2022/03/24 14:07:55;;;;;;;22.60;11.63;;;;;;;;;;5107082;28;20040;-66
2022/03/24 14:10:21;;;;;;;;;;;;;;;;;;5109783;28;20059;-66
2022/03/24 14:12:51;;;;;;;15.77;9.57;;;;;;;;;;5108257;28;19920;-66
2022/03/24 14:15:21;;;;;;;17.10;10.50;;;;;;;;;;5108731;28;20519;-65
2022/03/24 14:18:07;;;;;;;21.67;10.50;;;;;;;;;;5108544;28;20093;-66